Time;durP1;ratioP1;P1;durP2;ratioP2;P2;SDS_P1;SDS_P2;PMS_P1;PMS_P2;Temp;Humidity;BMP_temperature;BMP_pressure;BME280_temperature;BME280_humidity;BME280_pressure;Samples;Min_cycle;Max_cycle;Signal;HPM_P1;HPM_P2
2023/05/16 00:00:36;;;;;;;21.05;15.43;;;11.80;25.20;;;;;;7367164;19;20387;-71
2023/05/16 00:03:09;;;;;;;16.45;14.38;;;11.80;25.30;;;;;;7366570;19;20394;-71
2023/05/16 00:05:39;;;;;;;19.02;14.38;;;11.80;25.70;;;;;;7369228;19;20006;-71
2023/05/16 00:08:09;;;;;;;17.10;14.65;;;11.80;26.10;;;;;;7369338;19;20299;-72
2023/05/16 00:10:41;;;;;;;18.95;14.65;;;11.70;25.70;;;;;;7367799;19;20356;-71
2023/05/16 00:13:12;;;;;;;17.42;14.25;;;11.70;26.60;;;;;;7367641;19;20018;-72
2023/05/16 00:15:43;;;;;;;19.05;14.90;;;11.60;26.70;;;;;;7389251;19;20532;-72
2023/05/16 00:18:15;;;;;;;17.42;14.35;;;11.60;26.60;;;;;;7368737;19;20495;-72
2023/05/16 00:20:45;;;;;;;19.20;15.77;;;11.60;28.10;;;;;;7366605;19;20027;-72
2023/05/16 00:23:15;;;;;;;23.55;16.92;;;11.60;28.40;;;;;;7366862;19;20473;-71
2023/05/16 00:25:48;;;;;;;20.92;16.33;;;11.50;28.60;;;;;;7368193;19;20082;-71
2023/05/16 00:28:18;;;;;;;21.05;16.67;;;11.50;29.70;;;;;;7365785;19;20014;-71
2023/05/16 00:30:48;;;;;;;23.85;17.40;;;11.50;29.90;;;;;;7388164;19;20484;-71
2023/05/16 00:33:18;;;;;;;22.73;16.80;;;11.50;30.30;;;;;;7367332;19;20010;-72
2023/05/16 00:35:48;;;;;;;23.02;18.30;;;11.40;29.80;;;;;;7368648;19;20501;-71
2023/05/16 00:38:18;;;;;;;23.75;16.85;;;11.50;30.40;;;;;;7367816;19;20121;-70
2023/05/16 00:40:50;;;;;;;23.73;17.75;;;11.40;30.30;;;;;;7366986;19;20011;-71
2023/05/16 00:43:21;;;;;;;27.13;18.92;;;11.40;30.40;;;;;;7366866;19;20538;-71
2023/05/16 00:45:50;;;;;;;22.75;18.02;;;11.40;31.40;;;;;;7390199;19;20355;-71
2023/05/16 00:48:20;;;;;;;23.55;19.30;;;11.40;31.10;;;;;;7367080;19;20010;-71
2023/05/16 00:50:51;;;;;;;29.73;19.52;;;11.40;32.00;;;;;;7366296;19;20038;-71
2023/05/16 00:53:22;;;;;;;23.90;19.17;;;11.40;32.30;;;;;;7363565;19;20086;-71
2023/05/16 00:55:55;;;;;;;26.52;19.95;;;11.40;32.40;;;;;;7390478;19;20011;-72
2023/05/16 00:58:26;;;;;;;29.80;20.98;;;11.40;32.90;;;;;;7391712;19;20011;-72
2023/05/16 01:00:56;;;;;;;25.38;20.40;;;11.40;33.00;;;;;;7386912;19;20029;-72
2023/05/16 01:03:26;;;;;;;27.27;21.20;;;11.40;33.00;;;;;;7389009;19;20014;-72
2023/05/16 01:05:56;;;;;;;31.95;21.67;;;11.30;33.80;;;;;;7389458;19;20033;-73
2023/05/16 01:08:26;;;;;;;26.38;21.40;;;11.30;34.10;;;;;;7390801;19;20014;-70
2023/05/16 01:11:07;;;;;;;27.50;22.17;;;11.20;35.30;;;;;;7386613;19;20010;-71
2023/05/16 01:13:46;;;;;;;27.23;22.10;;;11.30;36.10;;;;;;7389795;19;20037;-71
2023/05/16 01:16:23;;;;;;;34.58;24.50;;;11.30;36.70;;;;;;7391289;19;20007;-71
2023/05/16 01:18:59;;;;;;;34.58;23.48;;;11.30;37.00;;;;;;7390989;19;20089;-71
2023/05/16 01:21:40;;;;;;;31.77;24.33;;;11.30;37.50;;;;;;7387028;19;20014;-71
2023/05/16 01:24:15;;;;;;;32.15;24.38;;;11.20;38.00;;;;;;7390097;19;20347;-72
2023/05/16 01:26:48;;;;;;;31.98;25.00;;;11.20;38.10;;;;;;7390910;19;19999;-72
2023/05/16 01:29:18;;;;;;;32.08;24.17;;;11.20;38.70;;;;;;7390670;19;20481;-71
2023/05/16 01:31:48;;;;;;;33.85;24.52;;;11.10;38.00;;;;;;7387529;19;20011;-72
2023/05/16 01:34:18;;;;;;;38.65;25.05;;;11.20;38.10;;;;;;7390088;19;20010;-71
2023/05/16 01:36:55;;;;;;;32.78;24.38;;;11.10;38.00;;;;;;7390612;19;20015;-71
2023/05/16 01:39:36;;;;;;;32.42;25.25;;;11.10;38.10;;;;;;7390993;19;20083;-71
2023/05/16 01:42:11;;;;;;;35.13;25.17;;;11.10;38.00;;;;;;7393406;19;20418;-72
2023/05/16 01:44:45;;;;;;;37.20;25.55;;;11.10;38.40;;;;;;7397435;19;20429;-71
2023/05/16 01:47:16;;;;;;;37.42;26.13;;;11.00;38.30;;;;;;7397438;19;20027;-71
2023/05/16 01:49:52;;;;;;;38.13;28.40;;;11.00;39.00;;;;;;7390187;19;20019;-71
2023/05/16 01:52:32;;;;;;;36.45;27.40;;;11.00;39.10;;;;;;7369974;19;20031;-70
2023/05/16 01:55:04;;;;;;;37.83;27.35;;;11.00;38.80;;;;;;7370740;19;20049;-71
2023/05/16 01:57:38;;;;;;;35.60;27.50;;;11.00;39.10;;;;;;7372980;19;20071;-71
2023/05/16 02:00:10;;;;;;;41.92;28.60;;;11.00;39.10;;;;;;7371882;19;20013;-71
2023/05/16 02:02:40;;;;;;;45.40;29.77;;;11.00;39.40;;;;;;7369816;19;20002;-71
2023/05/16 02:05:10;;;;;;;47.50;30.38;;;11.00;39.70;;;;;;7372561;19;20458;-71
2023/05/16 02:07:40;;;;;;;43.22;31.15;;;11.00;39.70;;;;;;7394757;19;20474;-71
2023/05/16 02:10:12;;;;;;;45.75;31.02;;;11.00;39.80;;;;;;7369827;19;20011;-72
2023/05/16 02:12:45;;;;;;;45.83;30.55;;;11.00;40.00;;;;;;7370716;19;20011;-71
2023/05/16 02:15:15;;;;;;;45.78;31.38;;;11.00;39.90;;;;;;7372541;19;20019;-71
2023/05/16 02:17:46;;;;;;;45.22;31.27;;;11.00;40.10;;;;;;7373170;19;20006;-71
2023/05/16 02:20:16;;;;;;;49.10;33.55;;;11.10;40.10;;;;;;7370280;19;20015;-71
2023/05/16 02:22:46;;;;;;;47.33;31.90;;;11.00;39.30;;;;;;7389278;19;20014;-72
2023/05/16 02:25:17;;;;;;;48.13;31.95;;;11.00;39.00;;;;;;7372206;19;20471;-72
2023/05/16 02:27:49;;;;;;;48.90;31.67;;;11.00;39.10;;;;;;7372383;19;20003;-72
2023/05/16 02:30:19;;;;;;;48.70;31.50;;;11.00;39.20;;;;;;7371100;19;20010;-72
2023/05/16 02:32:49;;;;;;;48.78;32.10;;;11.00;39.60;;;;;;7370229;19;20011;-72
2023/05/16 02:35:20;;;;;;;48.45;34.05;;;11.00;38.00;;;;;;7371407;19;20007;-71
2023/05/16 02:37:50;;;;;;;46.90;30.65;;;11.00;38.50;;;;;;7394567;19;20013;-71
2023/05/16 02:40:20;;;;;;;48.63;33.13;;;11.00;39.10;;;;;;7368981;19;20006;-71
2023/05/16 02:42:52;;;;;;;47.40;33.28;;;11.00;38.00;;;;;;7368241;19;20030;-71
2023/05/16 02:45:22;;;;;;;48.45;32.28;;;10.90;37.80;;;;;;7371439;19;20010;-71
2023/05/16 02:47:52;;;;;;;50.05;32.65;;;10.90;38.80;;;;;;7372354;19;20541;-71
2023/05/16 02:50:22;;;;;;;47.75;33.20;;;10.90;38.10;;;;;;7369842;19;20042;-72
2023/05/16 02:52:52;;;;;;;50.33;32.63;;;11.00;38.80;;;;;;7389987;19;20015;-71
2023/05/16 02:55:22;;;;;;;52.85;32.60;;;11.00;37.90;;;;;;7370527;19;20029;-71
2023/05/16 02:57:55;;;;;;;51.70;32.97;;;11.00;37.60;;;;;;7369946;19;20572;-71
2023/05/16 03:00:25;;;;;;;46.03;31.65;;;11.00;37.90;;;;;;7368055;19;20018;-72
2023/05/16 03:02:55;;;;;;;51.17;33.80;;;11.00;37.80;;;;;;7369306;19;20022;-72
2023/05/16 03:05:25;;;;;;;51.13;33.00;;;11.00;36.70;;;;;;7369848;19;20014;-71
2023/05/16 03:07:56;;;;;;;52.67;33.13;;;11.00;37.10;;;;;;7393703;19;20021;-71
2023/05/16 03:10:25;;;;;;;55.75;34.28;;;11.00;37.30;;;;;;7368165;19;20014;-72
2023/05/16 03:12:58;;;;;;;55.35;34.40;;;11.00;37.90;;;;;;7368387;19;20021;-71
2023/05/16 03:15:28;;;;;;;55.13;34.25;;;11.00;38.00;;;;;;7353035;19;20029;-72
2023/05/16 03:17:58;;;;;;;53.45;34.38;;;11.00;37.90;;;;;;7364454;19;20473;-72
2023/05/16 03:20:28;;;;;;;57.53;35.90;;;11.00;37.90;;;;;;7367854;19;20010;-72
2023/05/16 03:22:58;;;;;;;56.65;35.13;;;11.00;37.20;;;;;;7388939;19;20006;-72
2023/05/16 03:25:28;;;;;;;58.53;35.95;;;11.00;37.80;;;;;;7369475;19;20014;-72
2023/05/16 03:28:00;;;;;;;58.45;34.95;;;11.00;38.00;;;;;;7369625;19;20511;-72
2023/05/16 03:30:30;;;;;;;55.20;34.65;;;11.00;37.90;;;;;;7368047;19;20007;-72
2023/05/16 03:33:00;;;;;;;61.88;37.35;;;11.00;38.00;;;;;;7367708;19;20019;-72
2023/05/16 03:35:30;;;;;;;64.55;38.10;;;11.00;38.00;;;;;;7368862;19;20182;-72
2023/05/16 03:38:00;;;;;;;64.70;36.70;;;11.00;38.00;;;;;;7386406;19;20082;-71
2023/05/16 03:40:30;;;;;;;65.20;38.65;;;11.00;38.50;;;;;;7388924;19;20025;-72
2023/05/16 03:43:02;;;;;;;58.78;36.78;;;11.10;38.40;;;;;;7367972;19;20018;-72
2023/05/16 03:45:32;;;;;;;66.43;37.97;;;11.10;38.90;;;;;;7368916;19;20273;-72
2023/05/16 03:48:02;;;;;;;66.18;39.28;;;11.10;38.10;;;;;;7369023;19;20010;-72
2023/05/16 03:50:32;;;;;;;63.25;37.72;;;11.10;38.00;;;;;;7368191;19;20018;-72
2023/05/16 03:53:03;;;;;;;67.25;39.38;;;11.20;38.10;;;;;;7367875;19;20022;-72
2023/05/16 03:55:33;;;;;;;66.63;39.15;;;11.20;38.00;;;;;;7390007;19;20478;-72
2023/05/16 03:58:06;;;;;;;67.30;39.05;;;11.20;38.00;;;;;;7361103;19;20022;-72
2023/05/16 04:00:36;;;;;;;66.78;39.30;;;11.20;37.90;;;;;;7366690;19;20038;-72
2023/05/16 04:03:07;;;;;;;72.18;40.90;;;11.20;37.50;;;;;;7368640;19;20621;-72
2023/05/16 04:05:37;;;;;;;65.05;39.80;;;11.20;36.90;;;;;;7368049;19;20031;-72
2023/05/16 04:08:07;;;;;;;63.63;38.20;;;11.30;37.20;;;;;;7369452;19;20039;-72
2023/05/16 04:10:37;;;;;;;67.38;38.08;;;11.30;36.70;;;;;;7387725;19;20015;-72
2023/05/16 04:13:09;;;;;;;68.40;37.95;;;11.30;36.10;;;;;;7367721;19;20021;-72
2023/05/16 04:15:39;;;;;;;69.65;39.60;;;11.30;35.80;;;;;;7368096;19;20113;-72
2023/05/16 04:18:10;;;;;;;64.28;36.70;;;11.30;35.40;;;;;;7368921;19;20399;-72
2023/05/16 04:20:40;;;;;;;64.55;37.00;;;11.40;35.60;;;;;;7366469;19;20385;-72
2023/05/16 04:23:12;;;;;;;66.05;37.90;;;11.40;34.10;;;;;;7367681;19;20010;-72
2023/05/16 04:25:42;;;;;;;65.70;36.80;;;11.40;32.50;;;;;;7389506;19;20435;-72
2023/05/16 04:28:15;;;;;;;66.55;39.63;;;11.40;33.70;;;;;;7368388;19;20010;-72
2023/05/16 04:30:45;;;;;;;63.83;38.95;;;11.40;33.30;;;;;;7366278;19;20044;-72
2023/05/16 04:33:15;;;;;;;60.35;36.78;;;11.50;33.90;;;;;;7368366;19;20006;-72
2023/05/16 04:35:45;;;;;;;64.00;38.05;;;11.70;29.10;;;;;;7368047;19;20006;-72
2023/05/16 04:38:15;;;;;;;61.22;37.17;;;12.00;28.10;;;;;;7367932;19;20474;-72
2023/05/16 04:40:45;;;;;;;58.75;35.67;;;12.10;24.70;;;;;;7386741;19;20022;-72
2023/05/16 04:43:17;;;;;;;57.28;35.13;;;11.90;26.80;;;;;;7367024;19;20016;-72
2023/05/16 04:45:47;;;;;;;56.90;33.63;;;11.80;28.00;;;;;;7367323;19;20086;-72
2023/05/16 04:48:18;;;;;;;65.63;36.75;;;11.60;29.60;;;;;;7367051;19;20061;-72
2023/05/16 04:50:47;;;;;;;60.30;35.67;;;11.60;30.00;;;;;;7363260;19;20011;-72
2023/05/16 04:53:17;;;;;;;61.70;36.22;;;11.60;31.10;;;;;;7366987;19;20013;-72
2023/05/16 04:55:47;;;;;;;64.68;37.60;;;11.60;31.90;;;;;;7390061;19;20034;-72
2023/05/16 04:58:22;;;;;;;59.92;37.03;;;11.70;31.60;;;;;;7366057;19;19999;-71
2023/05/16 05:00:53;;;;;;;59.70;36.15;;;11.80;30.20;;;;;;7364849;19;20043;-71
2023/05/16 05:03:23;;;;;;;59.08;36.40;;;11.70;29.80;;;;;;7364773;19;20020;-70
2023/05/16 05:05:53;;;;;;;64.57;36.90;;;11.70;30.00;;;;;;7366464;19;20478;-71
2023/05/16 05:08:23;;;;;;;55.53;34.72;;;11.60;30.60;;;;;;7365806;19;20502;-71
2023/05/16 05:10:53;;;;;;;55.88;34.67;;;11.60;30.00;;;;;;7384621;19;20023;-71
2023/05/16 05:13:25;;;;;;;61.20;34.65;;;11.60;30.20;;;;;;7365415;19;20023;-71
2023/05/16 05:15:55;;;;;;;61.00;35.60;;;11.60;29.50;;;;;;7371670;19;20031;-71
2023/05/16 05:18:25;;;;;;;61.10;35.70;;;11.60;30.20;;;;;;7371766;19;20010;-70
2023/05/16 05:20:55;;;;;;;60.08;35.70;;;11.60;31.20;;;;;;7369300;19;20470;-70
2023/05/16 05:23:25;;;;;;;61.50;35.45;;;11.60;30.30;;;;;;7371207;19;20014;-71
2023/05/16 05:25:55;;;;;;;61.70;34.22;;;11.60;30.80;;;;;;7395928;19;20018;-70
2023/05/16 05:28:27;;;;;;;58.13;35.30;;;11.60;31.70;;;;;;7372889;19;20002;-70
2023/05/16 05:30:57;;;;;;;66.03;36.15;;;11.60;32.50;;;;;;7369078;19;20018;-70
2023/05/16 05:33:29;;;;;;;58.42;36.53;;;11.60;31.70;;;;;;7372452;19;20018;-71
2023/05/16 05:35:59;;;;;;;56.42;35.85;;;11.60;32.00;;;;;;7371889;19;20015;-71
2023/05/16 05:38:32;;;;;;;57.75;34.97;;;11.60;30.60;;;;;;7371644;19;20034;-71
2023/05/16 05:41:02;;;;;;;63.25;34.85;;;11.60;31.80;;;;;;7368241;19;20049;-71
2023/05/16 05:43:35;;;;;;;61.80;35.97;;;11.70;31.10;;;;;;7392414;19;20490;-71
2023/05/16 05:46:05;;;;;;;59.63;35.45;;;11.80;30.60;;;;;;7371051;19;20009;-71
2023/05/16 05:48:35;;;;;;;54.55;34.60;;;11.90;29.30;;;;;;7370676;19;20015;-71
2023/05/16 05:51:05;;;;;;;54.08;33.65;;;11.80;29.70;;;;;;7367025;19;20007;-70
2023/05/16 05:53:36;;;;;;;55.08;32.60;;;11.80;27.80;;;;;;7372218;19;20010;-69
2023/05/16 05:56:06;;;;;;;53.88;32.55;;;11.90;28.50;;;;;;7364552;19;20123;-70
2023/05/16 05:58:40;;;;;;;53.67;32.33;;;11.80;28.00;;;;;;7392888;19;20023;-71
2023/05/16 06:01:11;;;;;;;;;;;11.90;28.70;;;;;;7369938;19;20021;-71
2023/05/16 06:03:41;;;;;;;55.22;32.45;;;12.00;28.40;;;;;;7371068;19;19917;-72
2023/05/16 06:06:11;;;;;;;49.25;31.15;;;12.10;27.00;;;;;;7370633;19;20465;-71
2023/05/16 06:08:41;;;;;;;51.30;31.42;;;12.10;23.90;;;;;;7371972;19;20406;-71
2023/05/16 06:11:11;;;;;;;46.35;28.67;;;12.00;23.40;;;;;;7368541;19;20089;-71
2023/05/16 06:13:44;;;;;;;40.10;27.33;;;12.10;23.80;;;;;;7394077;19;20014;-71
2023/05/16 06:16:14;;;;;;;43.90;27.60;;;12.10;22.80;;;;;;7370777;19;20014;-72
2023/05/16 06:18:44;;;;;;;43.00;28.05;;;12.20;20.10;;;;;;7370728;19;20032;-71
2023/05/16 06:21:14;;;;;;;45.15;28.13;;;12.30;20.50;;;;;;7367636;19;20380;-71
2023/05/16 06:23:44;;;;;;;43.67;28.33;;;12.30;19.70;;;;;;7370608;19;20455;-71
2023/05/16 06:26:14;;;;;;;44.10;27.73;;;12.50;20.30;;;;;;7369583;19;20006;-71
2023/05/16 06:28:47;;;;;;;42.05;27.42;;;12.30;20.30;;;;;;7393512;19;20025;-71
2023/05/16 06:31:17;;;;;;;39.33;26.48;;;12.10;20.00;;;;;;7367045;19;20016;-71
2023/05/16 06:33:47;;;;;;;47.78;27.45;;;12.20;22.30;;;;;;7370774;19;20029;-71
2023/05/16 06:36:17;;;;;;;41.97;26.55;;;12.40;21.10;;;;;;7371364;19;20035;-71
2023/05/16 06:38:47;;;;;;;40.65;26.73;;;12.50;19.90;;;;;;7370085;19;20013;-71
2023/05/16 06:41:17;;;;;;;37.83;25.60;;;12.50;18.10;;;;;;7366021;19;20085;-72
2023/05/16 06:43:50;;;;;;;39.38;24.80;;;12.60;18.60;;;;;;7389220;19;20014;-72
2023/05/16 06:46:20;;;;;;;39.08;24.60;;;12.50;18.50;;;;;;7369509;19;20030;-71
2023/05/16 06:48:50;;;;;;;34.85;23.95;;;12.40;17.60;;;;;;7370207;19;20395;-71
2023/05/16 06:51:20;;;;;;;38.22;22.67;;;12.40;18.60;;;;;;7365591;19;20015;-71
2023/05/16 06:53:50;;;;;;;34.42;23.67;;;12.30;16.20;;;;;;7368716;19;20006;-71
2023/05/16 06:56:20;;;;;;;33.20;22.38;;;12.30;17.70;;;;;;7369697;19;20029;-71
2023/05/16 06:58:52;;;;;;;31.08;20.27;;;12.40;17.20;;;;;;7391119;19;20014;-71
2023/05/16 07:01:22;;;;;;;30.98;21.00;;;12.20;18.40;;;;;;7366650;19;20018;-71
2023/05/16 07:03:52;;;;;;;29.33;20.25;;;12.30;17.70;;;;;;7368742;19;20017;-71
2023/05/16 07:06:22;;;;;;;29.33;19.52;;;12.30;16.60;;;;;;7368370;19;20031;-71
2023/05/16 07:08:53;;;;;;;26.08;18.58;;;12.10;17.00;;;;;;7369030;19;20018;-70
2023/05/16 07:11:23;;;;;;;26.67;18.33;;;12.10;17.50;;;;;;7367489;19;20042;-71
2023/05/16 07:13:55;;;;;;;23.83;18.45;;;12.00;17.60;;;;;;7391321;19;20014;-71
2023/05/16 07:16:27;;;;;;;24.63;18.55;;;12.00;16.50;;;;;;7369682;19;20383;-70
2023/05/16 07:18:57;;;;;;;25.00;17.45;;;11.90;17.50;;;;;;7368224;19;20132;-71
2023/05/16 07:21:27;;;;;;;22.45;16.95;;;11.90;18.50;;;;;;7366312;19;20010;-72
2023/05/16 07:23:57;;;;;;;24.77;16.92;;;11.70;19.70;;;;;;7367756;19;20457;-71
2023/05/16 07:26:27;;;;;;;20.10;15.85;;;11.70;18.70;;;;;;7369596;19;20538;-72
2023/05/16 07:29:01;;;;;;;19.85;15.35;;;11.90;16.90;;;;;;7390086;19;20492;-71
2023/05/16 07:31:31;;;;;;;19.75;15.18;;;12.10;16.10;;;;;;7366700;19;20011;-71
2023/05/16 07:34:01;;;;;;;18.83;15.02;;;12.00;14.80;;;;;;7368745;19;20035;-71
2023/05/16 07:36:31;;;;;;;18.88;14.85;;;12.10;13.10;;;;;;7370059;19;20013;-71
2023/05/16 07:39:01;;;;;;;18.80;14.35;;;12.20;12.10;;;;;;7366936;19;20620;-71
2023/05/16 07:41:32;;;;;;;19.83;15.20;;;12.30;10.10;;;;;;7358916;19;20022;-71
2023/05/16 07:44:05;;;;;;;21.92;14.80;;;12.50;9.50;;;;;;7367786;19;20022;-70
2023/05/16 07:46:35;;;;;;;19.08;15.32;;;12.50;9.50;;;;;;7389422;19;20220;-71
2023/05/16 07:49:05;;;;;;;21.73;14.23;;;12.50;9.90;;;;;;7367584;19;20011;-72
2023/05/16 07:51:35;;;;;;;18.02;14.70;;;12.60;10.20;;;;;;7366848;19;20078;-71
2023/05/16 07:54:06;;;;;;;20.00;14.70;;;12.70;8.80;;;;;;7367636;19;20017;-71
2023/05/16 07:56:36;;;;;;;21.60;14.57;;;12.50;9.50;;;;;;7368923;19;20007;-71
2023/05/16 07:59:09;;;;;;;18.80;14.10;;;12.50;9.50;;;;;;7367889;19;20049;-71
2023/05/16 08:01:39;;;;;;;21.10;14.45;;;12.60;8.20;;;;;;7388107;19;20018;-71
2023/05/16 08:04:09;;;;;;;17.05;13.23;;;12.70;7.80;;;;;;7365398;19;20010;-70
2023/05/16 08:06:39;;;;;;;16.60;12.57;;;12.60;6.10;;;;;;7365208;19;20014;-71
2023/05/16 08:09:08;;;;;;;17.15;13.82;;;12.60;6.20;;;;;;7368399;19;20021;-71
2023/05/16 08:11:38;;;;;;;16.58;12.85;;;12.50;7.90;;;;;;7366116;19;20042;-71
2023/05/16 08:14:11;;;;;;;18.63;13.93;;;12.60;7.70;;;;;;7367046;19;20010;-73
2023/05/16 08:16:41;;;;;;;22.52;14.63;;;12.60;8.00;;;;;;7390311;19;20482;-73
2023/05/16 08:19:11;;;;;;;21.42;15.20;;;12.50;8.60;;;;;;7366883;19;20015;-70
2023/05/16 08:21:41;;;;;;;22.67;16.73;;;12.10;11.20;;;;;;7364498;19;20085;-72
2023/05/16 08:24:11;;;;;;;23.40;16.70;;;12.20;11.60;;;;;;7366741;19;20093;-72
2023/05/16 08:26:41;;;;;;;20.95;15.00;;;12.10;13.60;;;;;;7367594;19;20011;-72
2023/05/16 08:29:13;;;;;;;23.65;17.55;;;12.10;12.80;;;;;;7367626;19;20011;-71
2023/05/16 08:31:43;;;;;;;24.98;17.65;;;11.90;14.40;;;;;;7387056;19;20011;-72
2023/05/16 08:34:13;;;;;;;23.55;17.73;;;11.90;16.30;;;;;;7365427;19;20521;-71
2023/05/16 08:36:43;;;;;;;28.80;18.70;;;12.00;15.70;;;;;;7366081;19;20398;-72
2023/05/16 08:39:13;;;;;;;24.65;18.33;;;12.10;15.60;;;;;;7367294;19;20014;-72
2023/05/16 08:41:43;;;;;;;25.45;18.70;;;12.00;17.10;;;;;;7365503;19;20344;-71
2023/05/16 08:44:20;;;;;;;26.83;19.70;;;12.10;18.10;;;;;;7366634;19;20018;-71
2023/05/16 08:46:53;;;;;;;24.92;18.83;;;12.10;17.10;;;;;;7386958;19;20039;-71
2023/05/16 08:49:24;;;;;;;28.73;19.30;;;12.00;17.10;;;;;;7364526;19;20328;-71
2023/05/16 08:51:58;;;;;;;27.25;19.60;;;12.30;16.90;;;;;;7364323;19;20115;-71
2023/05/16 08:54:28;;;;;;;;;;;12.30;15.90;;;;;;7366231;19;20407;-72
2023/05/16 08:56:59;;;;;;;29.05;19.88;;;12.40;16.60;;;;;;7365213;19;19956;-71
2023/05/16 08:59:32;;;;;;;33.72;21.33;;;12.30;17.00;;;;;;7365775;19;20039;-71
2023/05/16 09:02:03;;;;;;;30.38;20.13;;;12.20;17.70;;;;;;7363997;19;20362;-71
2023/05/16 09:04:33;;;;;;;33.53;22.45;;;12.20;18.20;;;;;;7387596;19;20048;-71
2023/05/16 09:07:03;;;;;;;34.42;23.02;;;12.20;18.60;;;;;;7364566;19;20038;-71
2023/05/16 09:09:33;;;;;;;35.72;23.58;;;12.20;18.30;;;;;;7365541;19;20010;-71
2023/05/16 09:12:03;;;;;;;32.28;23.10;;;12.20;18.90;;;;;;7364071;19;20129;-71
2023/05/16 09:14:35;;;;;;;34.60;22.98;;;12.10;19.50;;;;;;7366897;19;20013;-72
2023/05/16 09:17:07;;;;;;;33.17;23.40;;;12.30;20.10;;;;;;7366901;19;20014;-72
2023/05/16 09:19:41;;;;;;;35.88;23.70;;;12.40;19.10;;;;;;7386477;19;20604;-72
2023/05/16 09:22:13;;;;;;;33.00;22.70;;;12.50;16.80;;;;;;7362768;19;20018;-71
2023/05/16 09:24:44;;;;;;;29.98;21.83;;;12.80;15.00;;;;;;7365091;19;20017;-73
2023/05/16 09:27:16;;;;;;;34.28;22.95;;;12.90;12.70;;;;;;7365355;19;20038;-71
2023/05/16 09:29:53;;;;;;;30.55;21.52;;;12.70;11.20;;;;;;7364674;19;20439;-72
2023/05/16 09:32:22;;;;;;;29.73;20.90;;;12.80;12.30;;;;;;7362286;19;20041;-72
2023/05/16 09:34:57;;;;;;;34.20;22.92;;;12.70;11.00;;;;;;7386039;19;20351;-71
2023/05/16 09:37:27;;;;;;;37.85;23.17;;;12.70;13.50;;;;;;7365225;19;20478;-71
2023/05/16 09:39:57;;;;;;;32.85;21.42;;;12.80;13.40;;;;;;7362646;19;20033;-71
2023/05/16 09:42:27;;;;;;;34.28;22.38;;;12.80;11.90;;;;;;7363373;19;20014;-71
2023/05/16 09:45:00;;;;;;;32.20;20.20;;;12.80;13.10;;;;;;7364148;19;20123;-71
2023/05/16 09:47:33;;;;;;;33.25;21.33;;;12.80;10.90;;;;;;7363863;19;20042;-72
2023/05/16 09:50:03;;;;;;;31.48;19.95;;;13.10;9.90;;;;;;7362595;19;20029;-71
2023/05/16 09:52:33;;;;;;;30.60;20.48;;;13.10;9.90;;;;;;7385602;19;20487;-71
2023/05/16 09:55:05;;;;;;;28.83;20.23;;;13.30;7.50;;;;;;7364211;19;20099;-71
2023/05/16 09:57:38;;;;;;;26.45;18.58;;;13.40;6.30;;;;;;7364835;19;20010;-71
2023/05/16 10:00:13;;;;;;;28.95;20.23;;;13.30;6.20;;;;;;7362189;19;20657;-71
2023/05/16 10:02:44;;;;;;;29.85;19.17;;;13.50;6.40;;;;;;7371307;19;20027;-72
2023/05/16 10:05:15;;;;;;;32.17;18.15;;;13.40;4.80;;;;;;7371846;19;20035;-71
2023/05/16 10:07:46;;;;;;;28.67;17.73;;;13.50;6.40;;;;;;7392325;19;20010;-70
2023/05/16 10:10:16;;;;;;;27.45;19.08;;;13.90;3.60;;;;;;7367691;19;20783;-72
2023/05/16 10:12:47;;;;;;;24.67;17.83;;;14.00;1.00;;;;;;7370774;19;20019;-71
2023/05/16 10:15:21;;;;;;;24.60;17.50;;;13.70;2.20;;;;;;7372131;19;20018;-71
2023/05/16 10:17:55;;;;;;;26.08;16.88;;;13.50;2.90;;;;;;7369654;19;20713;-71
2023/05/16 10:20:25;;;;;;;27.88;17.10;;;13.20;2.90;;;;;;7368026;19;20014;-71
2023/05/16 10:22:58;;;;;;;29.65;17.73;;;13.10;4.60;;;;;;7391712;19;20014;-71
2023/05/16 10:25:31;;;;;;;26.77;17.55;;;13.10;5.50;;;;;;7370657;19;20010;-72
2023/05/16 10:28:02;;;;;;;28.10;17.42;;;13.20;5.90;;;;;;7367875;19;20048;-72
2023/05/16 10:30:36;;;;;;;26.60;17.42;;;13.10;6.30;;;;;;7368767;19;20011;-72
2023/05/16 10:33:06;;;;;;;25.60;17.05;;;13.00;6.60;;;;;;7370405;19;20021;-69
2023/05/16 10:35:36;;;;;;;25.65;16.40;;;13.00;7.70;;;;;;7369803;19;20011;-69
2023/05/16 10:38:09;;;;;;;28.10;17.00;;;12.80;7.80;;;;;;7371120;19;20256;-71
2023/05/16 10:40:41;;;;;;;26.85;16.33;;;12.80;7.90;;;;;;7388703;19;20014;-71
2023/05/16 10:43:11;;;;;;;25.00;15.32;;;12.70;9.60;;;;;;7369805;19;20113;-70
2023/05/16 10:45:44;;;;;;;23.15;15.35;;;12.70;9.70;;;;;;7369331;19;20002;-71
2023/05/16 10:48:14;;;;;;;22.35;14.75;;;12.70;9.00;;;;;;7368751;19;21335;-70
2023/05/16 10:50:45;;;;;;;24.50;14.40;;;12.70;8.40;;;;;;7367658;19;20010;-73
2023/05/16 10:53:18;;;;;;;25.73;14.15;;;12.60;8.70;;;;;;7370511;19;20023;-73
2023/05/16 10:56:10;;;;;;;21.88;14.20;;;12.70;9.60;;;;;;7392851;19;20014;-72
2023/05/16 10:58:44;;;;;;;24.35;14.15;;;12.60;9.70;;;;;;7370357;19;20006;-74
2023/05/16 11:01:24;;;;;;;;;;;12.50;15.00;;;;;;7368093;19;20018;-72
2023/05/16 11:04:11;;;;;;;17.90;11.90;;;12.10;13.70;;;;;;7367433;19;19942;-73
2023/05/16 11:06:55;;;;;;;16.27;11.48;;;12.10;17.90;;;;;;7369696;19;21828;-73
2023/05/16 11:09:28;;;;;;;15.30;10.00;;;12.10;18.60;;;;;;7368891;19;20359;-72
2023/05/16 11:12:03;;;;;;;13.90;9.55;;;12.00;17.80;;;;;;7364838;19;20024;-72
2023/05/16 11:14:42;;;;;;;15.63;9.85;;;12.00;18.10;;;;;;7369124;19;20065;-72
2023/05/16 11:17:16;;;;;;;14.15;9.07;;;12.00;17.60;;;;;;7370101;19;20086;-73
2023/05/16 11:19:49;;;;;;;11.25;8.43;;;12.00;17.10;;;;;;7390303;19;20013;-73
2023/05/16 11:22:27;;;;;;;11.10;8.38;;;12.00;15.00;;;;;;7367412;19;20082;-73
2023/05/16 11:25:00;;;;;;;13.18;9.00;;;12.00;16.40;;;;;;7366551;19;20110;-72
2023/05/16 11:27:32;;;;;;;11.60;8.60;;;12.10;15.30;;;;;;7368081;19;20007;-73
2023/05/16 11:30:12;;;;;;;12.15;8.88;;;12.00;15.90;;;;;;7367151;19;20011;-73
2023/05/16 11:32:49;;;;;;;11.50;8.18;;;12.10;15.10;;;;;;7367926;19;20011;-72
2023/05/16 11:35:20;;;;;;;12.43;7.88;;;12.20;14.90;;;;;;7366213;19;20020;-72
2023/05/16 11:37:50;;;;;;;13.43;8.85;;;12.20;14.10;;;;;;7377404;19;20474;-72
2023/05/16 11:40:21;;;;;;;13.02;8.40;;;12.10;12.60;;;;;;7363613;19;20011;-72
2023/05/16 11:42:50;;;;;;;11.32;8.23;;;12.10;12.80;;;;;;7366089;19;20014;-72
2023/05/16 11:45:24;;;;;;;12.27;8.30;;;12.10;11.20;;;;;;7368525;19;20050;-73
2023/05/16 11:48:04;;;;;;;12.60;8.57;;;12.10;11.90;;;;;;7365314;19;20526;-71
2023/05/16 11:50:36;;;;;;;11.57;8.85;;;12.10;12.70;;;;;;7365442;19;20011;-70
2023/05/16 11:53:16;;;;;;;10.75;7.85;;;12.20;10.90;;;;;;7368705;19;20031;-72
2023/05/16 11:55:50;;;;;;;10.43;7.82;;;12.20;9.30;;;;;;7390100;19;20061;-73
2023/05/16 11:58:33;;;;;;;9.10;7.10;;;12.40;9.80;;;;;;7368190;19;20042;-73
2023/05/16 12:01:13;;;;;;;9.13;6.85;;;12.40;6.80;;;;;;7364005;19;20007;-71
2023/05/16 12:03:46;;;;;;;12.18;6.95;;;12.70;3.40;;;;;;7367055;19;20011;-72
2023/05/16 12:06:37;;;;;;;7.70;6.03;;;12.90;2.30;;;;;;7367373;19;20018;-72
2023/05/16 12:09:17;;;;;;;7.57;5.78;;;12.90;1.00;;;;;;7365620;19;20026;-72
2023/05/16 12:12:08;;;;;;;7.85;5.18;;;12.90;1.00;;;;;;7365101;19;20462;-73
2023/05/16 12:14:42;;;;;;;5.50;4.45;;;12.90;1.00;;;;;;7367050;19;20014;-72
2023/05/16 12:17:14;;;;;;;5.72;4.60;;;13.00;1.00;;;;;;7367872;19;20365;-73
2023/05/16 12:19:51;;;;;;;6.30;4.95;;;13.00;1.00;;;;;;7388192;19;20019;-73
2023/05/16 12:22:22;;;;;;;6.32;4.38;;;12.70;1.00;;;;;;7364780;19;20014;-72
2023/05/16 12:25:48;;;;;;;4.90;4.35;;;12.80;1.00;;;;;;7362553;19;20014;-71
2023/05/16 12:29:05;;;;;;;7.43;4.75;;;12.80;1.00;;;;;;7261363;19;2004251;-71
2023/05/16 12:31:38;;;;;;;9.20;4.80;;;12.90;1.00;;;;;;7387959;19;20054;-71
2023/05/16 12:34:19;;;;;;;5.80;3.90;;;12.90;1.00;;;;;;7366554;19;20034;-71
2023/05/16 12:36:55;;;;;;;4.88;4.05;;;12.80;1.00;;;;;;7366615;19;20470;-70
2023/05/16 12:39:25;;;;;;;4.13;3.72;;;12.50;1.00;;;;;;7364006;19;20011;-70
2023/05/16 12:41:55;;;;;;;6.25;4.43;;;12.40;1.00;;;;;;7363585;19;20021;-71
2023/05/16 12:44:25;;;;;;;5.90;3.95;;;12.20;1.00;;;;;;7365550;19;20504;-70
2023/05/16 12:46:57;;;;;;;4.88;4.18;;;12.10;1.00;;;;;;7389889;19;20011;-70
2023/05/16 12:49:27;;;;;;;4.93;3.50;;;12.20;1.00;;;;;;7365962;19;20033;-70
2023/05/16 12:52:04;;;;;;;4.68;3.47;;;12.30;1.00;;;;;;7358514;19;20027;-70
2023/05/16 12:54:34;;;;;;;3.85;3.45;;;12.30;1.00;;;;;;7362606;19;20010;-70
2023/05/16 12:57:05;;;;;;;4.38;3.22;;;12.10;1.00;;;;;;7366451;19;20086;-71